Terminal Aerodrome Forecast
Issued by NWS

Home | Current Version | Previous Version | Text Only | Print | Product List | Glossary Off
Versions: 1 2 3 4 5 6 7 8 9 10 11 12 13

000
FTUS43 KUNR 230520
TAFGCC
TAF
KGCC 230520Z 2306/2406 24005KT P6SM SKC
     FM230800 31011KT P6SM SCT250
     FM231500 34012KT P6SM SKC
     FM240500 36008KT P6SM SCT250=

USA.gov is the U.S. government's official web portal to all federal, state and local government web resources and services.